Weather reports worldwide

Advertisment
Hinojosa Del Duque, Spain (8335): temperature & dewpoint: 18.01.2020 02:00:00 - 24.01.2020 02:00:00 (CET)Hinojosa Del Duque, Spain (8335): wind speed & gusts: 18.01.2020 02:00:00 - 24.01.2020 02:00:00 (CET)Hinojosa Del Duque, Spain (8335): wind direction: 18.01.2020 02:00:00 - 24.01.2020 02:00:00 (CET)Hinojosa Del Duque, Spain (8335): reduced air pressure: 18.01.2020 02:00:00 - 24.01.2020 02:00:00 (CET)Hinojosa Del Duque, Spain (8335): precipitation: 18.01.2020 02:00:00 - 24.01.2020 02:00:00 (CET)
Date & Time tt [°C] td [°C] ff [km/h] ff [kn] fx [km/h] fx [kn] dd ppp [hPa] rr [mm]
24.01.2020 02:00:00 - - - - - - - - -
24.01.2020 01:00:00 7,4 6,5 5 3 9 5 SSE 1019,7 -
24.01.2020 00:00:00 7,5 6,2 8 4 18 10 SSE 1019,7 1,1
23.01.2020 23:00:00 7,8 6,2 11 6 17 9 SE 1019,5 0,5
23.01.2020 22:00:00 8,1 6,4 12 6 16 9 S 1019,2 0,3
23.01.2020 21:00:00 8,0 6,4 8 4 13 7 SE 1018,8 0,3
23.01.2020 20:00:00 8,4 6,2 9 5 17 9 SE 1018,2 0,0
23.01.2020 19:00:00 8,6 5,9 13 7 28 15 SSE 1017,6 -
23.01.2020 18:00:00 9,5 5,3 19 10 29 16 SE 1016,9 0,0
23.01.2020 17:00:00 9,8 5,5 19 11 32 17 SE 1016,5 0,0
23.01.2020 16:00:00 9,8 6,1 14 8 30 16 SE 1016,4 0,0
23.01.2020 15:00:00 9,8 5,9 21 11 33 18 SSE 1016,7 0,0
23.01.2020 14:00:00 9,9 6,1 19 10 35 19 SSE 1017,0 0,0
23.01.2020 13:00:00 10,0 5,8 23 12 38 20 SSE 1017,2 -
23.01.2020 12:00:00 9,4 5,9 17 9 24 13 SSE 1018,1 0,0
23.01.2020 11:00:00 8,3 5,8 14 7 22 12 SE 1018,0 0,0
23.01.2020 10:00:00 7,3 5,3 14 8 21 11 SE 1017,7 0,0
23.01.2020 09:00:00 6,2 4,8 12 7 23 13 SE 1017,6 0,0
23.01.2020 08:00:00 5,7 4,6 14 7 20 11 ESE 1017,3 0,0
23.01.2020 07:00:00 5,5 4,3 9 5 14 8 SE 1017,3 -
23.01.2020 06:00:00 5,5 4,1 10 6 18 10 SE 1017,1 0,0
23.01.2020 05:00:00 6,1 4,6 13 7 19 10 SE 1017,2 0,0
23.01.2020 04:00:00 6,4 4,5 12 6 17 9 SE 1017,2 0,0
23.01.2020 03:00:00 7,2 5,1 11 6 19 10 SE 1017,2 0,0
23.01.2020 02:00:00 5,9 4,6 7 4 11 6 SE 1017,7 0,0
23.01.2020 01:00:00 6,0 4,6 7 4 10 5 ESE 1017,7 -
23.01.2020 00:00:00 6,0 4,3 7 4 12 7 ESE 1017,8 0,0
22.01.2020 23:00:00 6,3 4,5 10 5 12 7 E 1017,2 0,0
22.01.2020 22:00:00 7,0 4,8 8 4 10 5 SSE 1017,0 0,0
22.01.2020 21:00:00 6,0 4,1 8 5 11 6 S 1017,4 0,0
22.01.2020 20:00:00 7,2 4,3 5 3 9 5 SE 1016,3 0,0
22.01.2020 19:00:00 7,8 5,1 7 4 10 5 ESE 1015,7 -
22.01.2020 18:00:00 9,3 5,6 7 4 14 8 E 1015,0 0,0
22.01.2020 17:00:00 10,5 4,8 6 3 17 9 ESE 1014,9 0,0
22.01.2020 16:00:00 10,9 4,3 8 4 17 9 SSE 1014,6 0,0
22.01.2020 15:00:00 10,5 4,6 11 6 20 11 SSE 1015,1 0,0
22.01.2020 14:00:00 10,7 5,5 9 5 19 10 SSE 1015,6 0,0
22.01.2020 13:00:00 9,9 6,1 9 5 21 11 ESE 1016,4 -
22.01.2020 12:00:00 8,5 6,2 10 6 16 9 E 1017,3 0,0
22.01.2020 11:00:00 6,3 5,5 11 6 16 9 ESE 1017,7 0,0
22.01.2020 10:00:00 5,0 4,6 11 6 14 8 E 1017,7 0,1
22.01.2020 09:00:00 4,6 4,1 8 5 11 6 E 1017,4 0,3
22.01.2020 08:00:00 4,3 3,9 7 4 11 6 E 1016,9 0,2
22.01.2020 07:00:00 4,3 3,9 7 4 10 6 ESE 1016,4 -
22.01.2020 06:00:00 4,4 3,8 8 4 13 7 E 1016,2 0,5
22.01.2020 05:00:00 4,4 3,8 8 4 12 6 E 1016,4 1,5
22.01.2020 04:00:00 4,1 3,4 6 3 9 5 E 1016,8 0,7
22.01.2020 03:00:00 3,9 2,9 6 3 10 5 E 1016,7 0,0
22.01.2020 02:00:00 3,0 2,3 6 3 8 4 E 1017,0 0,0
22.01.2020 01:00:00 2,3 1,5 2 1 6 3 SE 1017,1 -
22.01.2020 00:00:00 3,3 1,7 3 1 16 9 ESE 1017,0 0,0
21.01.2020 23:00:00 4,1 2,5 10 5 15 8 E 1016,3 0,0
21.01.2020 22:00:00 3,7 1,9 4 2 16 9 NE 1015,9 0,0
21.01.2020 21:00:00 6,0 3,2 14 7 28 15 ENE 1015,4 0,0
21.01.2020 20:00:00 6,8 3,4 17 9 26 14 ENE 1015,1 0,0
21.01.2020 19:00:00 7,0 3,2 14 7 26 14 ENE 1014,8 -
21.01.2020 18:00:00 6,7 3,2 8 4 14 8 NE 1014,5 0,1
21.01.2020 17:00:00 6,4 3,9 10 6 23 13 E 1014,1 0,0
21.01.2020 16:00:00 7,4 2,5 13 7 27 15 ENE 1014,1 0,0
21.01.2020 15:00:00 7,4 2,3 12 7 36 19 ENE 1014,1 0,0
21.01.2020 14:00:00 7,5 3,0 13 7 25 14 ENE 1014,8 0,0
21.01.2020 13:00:00 5,6 1,7 14 8 22 12 NE 1016,4 -
21.01.2020 12:00:00 5,5 1,3 16 9 29 16 ENE 1017,4 0,0
21.01.2020 11:00:00 5,9 0,6 18 10 29 16 NNE 1017,1 0,0
21.01.2020 10:00:00 4,9 -0,3 13 7 22 12 ENE 1017,5 0,0
21.01.2020 09:00:00 3,2 -0,7 4 2 15 8 NNE 1018,1 0,0
21.01.2020 08:00:00 4,2 -0,5 6 3 37 20 NNE 1017,7 0,0
21.01.2020 07:00:00 5,2 -0,3 24 13 39 21 ENE 1017,0 -
21.01.2020 06:00:00 5,4 0,0 21 11 33 18 ENE 1017,5 0,0
21.01.2020 05:00:00 5,2 -0,7 12 7 27 15 ENE 1018,3 0,0
21.01.2020 04:00:00 4,7 -0,7 9 5 38 20 NE 1018,5 0,0
21.01.2020 03:00:00 5,7 -0,3 22 12 38 21 ENE 1018,6 0,0
21.01.2020 02:00:00 5,7 -0,3 17 9 34 18 ENE 1019,4 0,0
21.01.2020 01:00:00 5,3 0,0 22 12 37 20 ENE 1019,8 -
21.01.2020 00:00:00 5,4 0,4 19 10 35 19 ENE 1020,2 0,0
20.01.2020 23:00:00 5,6 0,9 17 9 39 21 ENE 1020,0 0,0
20.01.2020 22:00:00 5,5 0,4 24 13 39 21 ENE 1019,8 0,0
20.01.2020 21:00:00 5,3 0,4 17 9 39 21 ENE 1019,8 0,0
20.01.2020 20:00:00 5,1 0,4 24 13 40 21 ENE 1019,5 0,0
20.01.2020 19:00:00 5,9 0,4 25 13 36 19 ENE 1019,3 -
20.01.2020 18:00:00 6,1 0,0 20 11 45 24 ENE 1019,0 0,0
20.01.2020 17:00:00 6,8 -0,7 32 17 49 26 ENE 1017,5 0,0
20.01.2020 16:00:00 6,2 -1,2 20 11 41 22 ENE 1018,6 0,0
20.01.2020 15:00:00 6,6 -2,0 26 14 48 26 ENE 1018,4 0,0
20.01.2020 14:00:00 5,0 -2,5 35 19 54 29 ENE 1019,5 0,0
20.01.2020 13:00:00 4,4 -1,7 26 14 46 25 ENE 1020,7 -
20.01.2020 12:00:00 3,7 -2,5 29 16 50 27 ENE 1021,2 0,0
20.01.2020 11:00:00 3,9 -3,3 23 13 50 27 ENE 1021,5 0,0
20.01.2020 10:00:00 3,9 -4,5 23 13 45 24 ENE 1020,8 0,0
20.01.2020 09:00:00 3,9 -4,5 23 13 40 21 E 1020,9 0,0
20.01.2020 08:00:00 3,7 -4,5 23 12 37 20 E 1020,7 0,0
20.01.2020 07:00:00 4,5 -4,2 22 12 51 27 ENE 1020,7 -
20.01.2020 06:00:00 4,4 -4,5 26 14 39 21 ENE 1020,9 0,0
20.01.2020 05:00:00 4,6 -4,8 17 9 43 23 NE 1021,6 0,0
20.01.2020 04:00:00 4,5 -4,2 15 8 37 20 ENE 1022,0 0,0
20.01.2020 03:00:00 4,5 -4,2 13 7 33 18 NE 1022,5 0,0
20.01.2020 02:00:00 4,4 -3,3 17 9 44 24 ENE 1023,3 0,0
20.01.2020 01:00:00 4,7 -2,2 18 10 49 26 ENE 1022,9 -
20.01.2020 00:00:00 5,4 -3,3 24 13 46 25 ENE 1022,8 0,0
19.01.2020 23:00:00 5,2 -1,0 20 11 41 22 ENE 1022,7 0,0
19.01.2020 22:00:00 4,7 0,4 9 5 27 14 E 1022,7 0,0
19.01.2020 21:00:00 5,5 0,2 16 9 37 20 ENE 1022,4 0,0
19.01.2020 20:00:00 5,4 1,1 29 16 50 27 E 1021,9 0,0
19.01.2020 19:00:00 7,3 0,0 23 12 44 24 ENE 1021,4 -
19.01.2020 18:00:00 8,9 -0,7 16 9 38 21 NNE 1020,2 0,0
19.01.2020 17:00:00 9,2 2,1 14 8 33 18 NNE 1019,9 0,0
19.01.2020 16:00:00 9,3 2,1 18 10 31 17 NNE 1020,1 0,0
19.01.2020 15:00:00 9,3 3,8 19 10 29 16 N 1019,8 0,0
19.01.2020 14:00:00 9,0 4,5 17 9 36 19 N 1020,6 0,0
19.01.2020 13:00:00 9,1 5,3 21 12 29 16 NNW 1021,0 -
19.01.2020 12:00:00 9,2 5,6 17 9 24 13 NW 1021,6 0,0
19.01.2020 11:00:00 7,9 5,9 17 9 24 13 NW 1021,9 0,0
19.01.2020 10:00:00 6,4 5,3 13 7 19 11 NW 1022,1 0,0
19.01.2020 09:00:00 5,0 4,3 13 7 18 10 WNW 1022,4 0,0
19.01.2020 08:00:00 6,0 4,8 10 6 21 11 NW 1022,0 0,0
19.01.2020 07:00:00 7,0 5,3 16 9 21 12 NW 1021,5 -
19.01.2020 06:00:00 6,6 4,8 16 9 29 16 WNW 1021,7 0,0
19.01.2020 05:00:00 6,6 5,0 19 10 25 13 WNW 1021,8 0,0
19.01.2020 04:00:00 7,3 5,6 22 12 31 17 WNW 1022,5 0,0
19.01.2020 03:00:00 8,4 6,1 26 14 33 18 WNW 1022,6 0,0
19.01.2020 02:00:00 9,0 6,5 19 11 32 18 WNW 1022,9 0,0
19.01.2020 01:00:00 8,9 5,9 22 12 34 18 W 1023,8 -
19.01.2020 00:00:00 10,0 6,8 28 15 40 22 W 1024,4 0,0
18.01.2020 23:00:00 11,0 8,3 28 15 41 22 WNW 1024,1 0,0
18.01.2020 22:00:00 11,0 9,8 19 11 30 16 WSW 1023,8 0,0
18.01.2020 21:00:00 11,0 10,0 23 12 35 19 WSW 1023,3 0,0
18.01.2020 20:00:00 11,2 10,0 13 7 27 15 SW 1024,0 0,0
18.01.2020 19:00:00 11,4 10,4 16 9 26 14 SW 1024,3 -
18.01.2020 18:00:00 11,6 10,5 13 7 26 14 SW 1025,1 0,0
18.01.2020 17:00:00 11,7 10,2 16 9 34 19 SSW 1025,2 0,0
18.01.2020 16:00:00 12,5 10,4 24 13 32 17 SW 1025,8 0,0
18.01.2020 15:00:00 11,2 9,7 16 9 30 16 SW 1026,8 0,0
18.01.2020 14:00:00 11,1 9,7 18 10 26 14 SSW 1027,6 0,0
18.01.2020 13:00:00 10,0 8,8 11 6 24 13 S 1029,4 -
18.01.2020 12:00:00 9,5 8,3 14 8 26 14 S 1030,2 2,8
18.01.2020 11:00:00 9,4 8,4 11 6 21 11 SE 1030,9 0,4
18.01.2020 10:00:00 9,3 8,3 11 6 18 10 ESE 1030,8 0,4
18.01.2020 09:00:00 9,4 8,1 11 6 17 9 S 1030,8 0,9
18.01.2020 08:00:00 9,3 8,1 9 5 14 7 S 1030,8 1,3
18.01.2020 07:00:00 8,8 7,4 6 3 10 6 WNW 1031,0 -
18.01.2020 06:00:00 8,4 6,7 8 4 16 9 S 1030,3 0,0
18.01.2020 05:00:00 7,4 6,2 6 3 10 5 SE 1031,1 0,0
18.01.2020 04:00:00 6,9 5,8 6 3 9 5 SSE 1031,9 0,0
18.01.2020 03:00:00 7,0 5,8 3 2 6 4 E 1032,6 0,0
18.01.2020 02:00:00 8,1 5,9 5 3 9 5 WNW 1033,2 0,0

tt = temperature
td = dewpoint
ff = wind speed
fx = gusts
dd = wind direction
ppp = reduced air pressure
rr = precipitation

Next stations